sensor_id;sensor_type;location;lat;lon;timestamp;pressure;altitude;pressure_sealevel;temperature;humidity
49297;BME280;35163;48.878;18.040;2023-04-01T00:01:48;96877.22;;;11.77;65.79
49297;BME280;35163;48.878;18.040;2023-04-01T00:04:15;96885.06;;;11.76;66.29
49297;BME280;35163;48.878;18.040;2023-04-01T00:06:42;96880.00;;;11.74;66.30
49297;BME280;35163;48.878;18.040;2023-04-01T00:09:09;96883.47;;;11.73;66.12
49297;BME280;35163;48.878;18.040;2023-04-01T00:11:35;96883.78;;;11.69;66.48
49297;BME280;35163;48.878;18.040;2023-04-01T00:14:05;96881.94;;;11.71;66.68
49297;BME280;35163;48.878;18.040;2023-04-01T00:16:35;96882.75;;;11.71;66.03
49297;BME280;35163;48.878;18.040;2023-04-01T00:19:02;96879.34;;;11.71;66.20
49297;BME280;35163;48.878;18.040;2023-04-01T00:21:29;96877.66;;;11.70;66.21
49297;BME280;35163;48.878;18.040;2023-04-01T00:23:56;96881.00;;;11.72;66.20
49297;BME280;35163;48.878;18.040;2023-04-01T00:26:23;96888.56;;;11.75;65.63
49297;BME280;35163;48.878;18.040;2023-04-01T00:28:51;96880.59;;;11.78;65.06
49297;BME280;35163;48.878;18.040;2023-04-01T00:31:18;96886.34;;;11.83;65.23
49297;BME280;35163;48.878;18.040;2023-04-01T00:33:45;96887.47;;;11.79;65.01
49297;BME280;35163;48.878;18.040;2023-04-01T00:36:17;96887.19;;;11.84;64.62
49297;BME280;35163;48.878;18.040;2023-04-01T00:38:44;96887.28;;;11.82;64.83
49297;BME280;35163;48.878;18.040;2023-04-01T00:41:13;96892.16;;;11.87;64.77
49297;BME280;35163;48.878;18.040;2023-04-01T00:43:43;96886.19;;;11.86;64.33
49297;BME280;35163;48.878;18.040;2023-04-01T00:46:11;96893.00;;;11.87;64.79
49297;BME280;35163;48.878;18.040;2023-04-01T00:48:51;96891.25;;;11.88;64.99
49297;BME280;35163;48.878;18.040;2023-04-01T00:51:22;96885.34;;;11.86;65.39
49297;BME280;35163;48.878;18.040;2023-04-01T00:53:52;96890.50;;;11.86;65.42
49297;BME280;35163;48.878;18.040;2023-04-01T00:56:33;96898.72;;;11.78;65.77
49297;BME280;35163;48.878;18.040;2023-04-01T00:59:04;96906.69;;;11.75;65.93
49297;BME280;35163;48.878;18.040;2023-04-01T01:01:35;96902.53;;;11.72;66.20
49297;BME280;35163;48.878;18.040;2023-04-01T01:04:02;96899.75;;;11.75;66.83
49297;BME280;35163;48.878;18.040;2023-04-01T01:32:28;96897.16;;;11.46;68.84
49297;BME280;35163;48.878;18.040;2023-04-01T01:37:47;96900.84;;;11.42;69.85
49297;BME280;35163;48.878;18.040;2023-04-01T01:40:16;96901.13;;;11.37;69.70
49297;BME280;35163;48.878;18.040;2023-04-01T01:42:47;96902.97;;;11.35;69.56
49297;BME280;35163;48.878;18.040;2023-04-01T01:45:18;96900.94;;;11.40;68.75
49297;BME280;35163;48.878;18.040;2023-04-01T01:47:47;96898.44;;;11.39;68.76
49297;BME280;35163;48.878;18.040;2023-04-01T01:50:18;96895.97;;;11.37;69.25
49297;BME280;35163;48.878;18.040;2023-04-01T01:52:46;96902.16;;;11.35;69.18
49297;BME280;35163;48.878;18.040;2023-04-01T01:55:46;96901.97;;;11.38;69.00
49297;BME280;35163;48.878;18.040;2023-04-01T01:58:22;96904.47;;;11.39;69.01
49297;BME280;35163;48.878;18.040;2023-04-01T02:00:55;96908.63;;;11.42;68.52
49297;BME280;35163;48.878;18.040;2023-04-01T02:03:25;96903.19;;;11.47;67.91
49297;BME280;35163;48.878;18.040;2023-04-01T02:05:56;96899.66;;;11.48;67.33
49297;BME280;35163;48.878;18.040;2023-04-01T02:08:57;96911.09;;;11.43;67.69
49297;BME280;35163;48.878;18.040;2023-04-01T02:11:36;96911.41;;;11.39;67.57
49297;BME280;35163;48.878;18.040;2023-04-01T02:14:11;96903.72;;;11.37;67.86
49297;BME280;35163;48.878;18.040;2023-04-01T02:17:06;96897.78;;;11.35;68.35
49297;BME280;35163;48.878;18.040;2023-04-01T02:19:50;96897.09;;;11.33;67.63
49297;BME280;35163;48.878;18.040;2023-04-01T02:22:22;96893.75;;;11.31;67.74
49297;BME280;35163;48.878;18.040;2023-04-01T02:24:56;96885.78;;;11.34;67.68
49297;BME280;35163;48.878;18.040;2023-04-01T02:27:25;96890.78;;;11.37;67.51
49297;BME280;35163;48.878;18.040;2023-04-01T02:29:52;96889.50;;;11.45;66.74
49297;BME280;35163;48.878;18.040;2023-04-01T02:32:19;96887.09;;;11.56;66.25
49297;BME280;35163;48.878;18.040;2023-04-01T02:34:47;96881.56;;;11.62;65.18
49297;BME280;35163;48.878;18.040;2023-04-01T02:37:17;96877.94;;;11.65;64.79
49297;BME280;35163;48.878;18.040;2023-04-01T02:39:44;96874.72;;;11.61;64.88
49297;BME280;35163;48.878;18.040;2023-04-01T02:42:11;96876.09;;;11.67;65.07
49297;BME280;35163;48.878;18.040;2023-04-01T02:44:37;96873.59;;;11.65;64.79
49297;BME280;35163;48.878;18.040;2023-04-01T02:47:04;96875.84;;;11.57;64.46
49297;BME280;35163;48.878;18.040;2023-04-01T02:49:31;96875.84;;;11.57;64.72
49297;BME280;35163;48.878;18.040;2023-04-01T02:51:58;96876.91;;;11.67;64.65
49297;BME280;35163;48.878;18.040;2023-04-01T02:54:24;96887.84;;;11.58;64.55
49297;BME280;35163;48.878;18.040;2023-04-01T02:56:51;96878.97;;;11.62;65.12
49297;BME280;35163;48.878;18.040;2023-04-01T02:59:18;96876.66;;;11.58;65.59
49297;BME280;35163;48.878;18.040;2023-04-01T03:01:45;96877.69;;;11.55;65.43
49297;BME280;35163;48.878;18.040;2023-04-01T03:04:11;96872.59;;;11.53;65.48
49297;BME280;35163;48.878;18.040;2023-04-01T03:06:38;96880.72;;;11.47;65.79
49297;BME280;35163;48.878;18.040;2023-04-01T03:09:04;96878.22;;;11.46;66.15
49297;BME280;35163;48.878;18.040;2023-04-01T03:11:31;96877.56;;;11.42;66.40
49297;BME280;35163;48.878;18.040;2023-04-01T03:13:58;96879.34;;;11.41;66.56
49297;BME280;35163;48.878;18.040;2023-04-01T03:16:24;96883.66;;;11.41;66.33
49297;BME280;35163;48.878;18.040;2023-04-01T03:18:51;96880.06;;;11.43;65.77
49297;BME280;35163;48.878;18.040;2023-04-01T03:21:22;96892.38;;;11.40;65.27
49297;BME280;35163;48.878;18.040;2023-04-01T03:23:49;96881.09;;;11.41;65.37
49297;BME280;35163;48.878;18.040;2023-04-01T03:26:16;96882.72;;;11.42;65.14
49297;BME280;35163;48.878;18.040;2023-04-01T03:28:43;96879.25;;;11.43;65.76
49297;BME280;35163;48.878;18.040;2023-04-01T03:31:10;96881.84;;;11.43;66.32
49297;BME280;35163;48.878;18.040;2023-04-01T03:33:37;96891.16;;;11.46;66.11
49297;BME280;35163;48.878;18.040;2023-04-01T03:36:06;96884.88;;;11.50;64.93
49297;BME280;35163;48.878;18.040;2023-04-01T03:38:34;96888.56;;;11.46;65.09
49297;BME280;35163;48.878;18.040;2023-04-01T03:41:01;96888.00;;;11.40;65.23
49297;BME280;35163;48.878;18.040;2023-04-01T03:43:28;96888.75;;;11.42;65.25
49297;BME280;35163;48.878;18.040;2023-04-01T03:45:55;96883.56;;;11.42;65.10
49297;BME280;35163;48.878;18.040;2023-04-01T03:48:25;96893.09;;;11.42;65.13
49297;BME280;35163;48.878;18.040;2023-04-01T03:50:52;96896.13;;;11.49;64.72
49297;BME280;35163;48.878;18.040;2023-04-01T03:53:19;96896.41;;;11.44;65.78
49297;BME280;35163;48.878;18.040;2023-04-01T03:55:46;96892.53;;;11.37;66.74
49297;BME280;35163;48.878;18.040;2023-04-01T03:58:13;96902.97;;;11.35;65.97
49297;BME280;35163;48.878;18.040;2023-04-01T04:00:40;96898.16;;;11.29;65.69
49297;BME280;35163;48.878;18.040;2023-04-01T04:03:07;96902.25;;;11.33;66.16
49297;BME280;35163;48.878;18.040;2023-04-01T04:05:33;96900.56;;;11.32;65.59
49297;BME280;35163;48.878;18.040;2023-04-01T04:08:01;96904.00;;;11.33;65.93
49297;BME280;35163;48.878;18.040;2023-04-01T04:10:28;96903.91;;;11.34;65.64
49297;BME280;35163;48.878;18.040;2023-04-01T04:12:55;96907.50;;;11.32;65.85
49297;BME280;35163;48.878;18.040;2023-04-01T04:15:22;96904.09;;;11.31;65.38
49297;BME280;35163;48.878;18.040;2023-04-01T04:17:49;96912.75;;;11.30;65.63
49297;BME280;35163;48.878;18.040;2023-04-01T04:20:16;96915.34;;;11.30;65.61
49297;BME280;35163;48.878;18.040;2023-04-01T04:22:43;96912.03;;;11.28;66.12
49297;BME280;35163;48.878;18.040;2023-04-01T04:25:10;96911.84;;;11.31;66.31
49297;BME280;35163;48.878;18.040;2023-04-01T04:27:36;96914.25;;;11.34;66.04
49297;BME280;35163;48.878;18.040;2023-04-01T04:30:05;96913.88;;;11.40;65.54
49297;BME280;35163;48.878;18.040;2023-04-01T04:32:32;96916.28;;;11.43;65.41
49297;BME280;35163;48.878;18.040;2023-04-01T04:34:58;96917.78;;;11.48;65.47
49297;BME280;35163;48.878;18.040;2023-04-01T04:37:25;96910.03;;;11.48;65.41
49297;BME280;35163;48.878;18.040;2023-04-01T04:39:52;96921.31;;;11.47;65.45
49297;BME280;35163;48.878;18.040;2023-04-01T04:42:19;96923.72;;;11.50;65.10
49297;BME280;35163;48.878;18.040;2023-04-01T04:44:45;96916.38;;;11.42;64.92
49297;BME280;35163;48.878;18.040;2023-04-01T04:47:12;96923.16;;;11.45;64.89
49297;BME280;35163;48.878;18.040;2023-04-01T04:49:39;96931.81;;;11.43;64.54
49297;BME280;35163;48.878;18.040;2023-04-01T04:52:06;96923.16;;;11.45;64.83
49297;BME280;35163;48.878;18.040;2023-04-01T04:54:32;96924.81;;;11.46;64.86
49297;BME280;35163;48.878;18.040;2023-04-01T04:56:59;96929.16;;;11.45;64.57
49297;BME280;35163;48.878;18.040;2023-04-01T04:59:26;96932.00;;;11.40;64.57
49297;BME280;35163;48.878;18.040;2023-04-01T05:01:52;96934.06;;;11.50;64.38
49297;BME280;35163;48.878;18.040;2023-04-01T05:04:19;96937.75;;;11.46;63.84
49297;BME280;35163;48.878;18.040;2023-04-01T05:06:46;96937.84;;;11.44;64.39
49297;BME280;35163;48.878;18.040;2023-04-01T05:09:12;96923.34;;;11.41;65.16
49297;BME280;35163;48.878;18.040;2023-04-01T05:11:39;96926.00;;;11.40;65.12
49297;BME280;35163;48.878;18.040;2023-04-01T05:14:12;96925.09;;;11.41;64.39
49297;BME280;35163;48.878;18.040;2023-04-01T05:16:39;96923.75;;;11.34;64.42
49297;BME280;35163;48.878;18.040;2023-04-01T05:19:05;96925.69;;;11.30;63.93
49297;BME280;35163;48.878;18.040;2023-04-01T05:21:32;96924.59;;;11.34;64.57
49297;BME280;35163;48.878;18.040;2023-04-01T05:23:59;96929.50;;;11.39;64.59
49297;BME280;35163;48.878;18.040;2023-04-01T05:26:25;96924.50;;;11.36;64.22
49297;BME280;35163;48.878;18.040;2023-04-01T05:28:52;96924.34;;;11.39;64.53
49297;BME280;35163;48.878;18.040;2023-04-01T05:31:19;96925.72;;;11.45;64.56
49297;BME280;35163;48.878;18.040;2023-04-01T05:33:45;96921.66;;;11.40;64.19
49297;BME280;35163;48.878;18.040;2023-04-01T05:36:14;96925.16;;;11.39;64.00
49297;BME280;35163;48.878;18.040;2023-04-01T05:38:41;96929.22;;;11.43;64.19
49297;BME280;35163;48.878;18.040;2023-04-01T05:41:09;96925.00;;;11.42;63.51
49297;BME280;35163;48.878;18.040;2023-04-01T05:43:36;96925.00;;;11.42;63.64
49297;BME280;35163;48.878;18.040;2023-04-01T05:46:03;96925.84;;;11.43;63.73
49297;BME280;35163;48.878;18.040;2023-04-01T05:48:34;96925.91;;;11.41;63.71
49297;BME280;35163;48.878;18.040;2023-04-01T05:51:02;96923.25;;;11.43;63.31
49297;BME280;35163;48.878;18.040;2023-04-01T05:53:29;96928.41;;;11.43;63.60
49297;BME280;35163;48.878;18.040;2023-04-01T05:55:56;96921.31;;;11.47;63.30
49297;BME280;35163;48.878;18.040;2023-04-01T05:58:22;96919.81;;;11.42;63.57
49297;BME280;35163;48.878;18.040;2023-04-01T06:00:49;96915.28;;;11.46;63.91
49297;BME280;35163;48.878;18.040;2023-04-01T06:03:33;96916.28;;;11.43;62.88
49297;BME280;35163;48.878;18.040;2023-04-01T06:06:01;96921.97;;;11.50;63.60
49297;BME280;35163;48.878;18.040;2023-04-01T06:08:30;96918.53;;;11.64;64.15
49297;BME280;35163;48.878;18.040;2023-04-01T06:27:12;96934.97;;;12.07;63.09
49297;BME280;35163;48.878;18.040;2023-04-01T06:35:11;96936.38;;;12.27;62.58
49297;BME280;35163;48.878;18.040;2023-04-01T06:41:09;96928.44;;;12.58;60.72
49297;BME280;35163;48.878;18.040;2023-04-01T06:52:27;96921.41;;;13.01;58.00
49297;BME280;35163;48.878;18.040;2023-04-01T06:57:49;96931.56;;;12.91;57.20
49297;BME280;35163;48.878;18.040;2023-04-01T07:05:41;96939.34;;;12.91;57.58
49297;BME280;35163;48.878;18.040;2023-04-01T07:08:12;96943.69;;;12.91;57.26
49297;BME280;35163;48.878;18.040;2023-04-01T07:10:47;96943.88;;;12.87;57.85
49297;BME280;35163;48.878;18.040;2023-04-01T07:13:29;96950.31;;;12.95;57.59
49297;BME280;35163;48.878;18.040;2023-04-01T07:18:49;96952.38;;;12.90;57.55
49297;BME280;35163;48.878;18.040;2023-04-01T07:21:35;96959.72;;;12.83;57.92
49297;BME280;35163;48.878;18.040;2023-04-01T07:24:17;96955.19;;;12.86;57.78
49297;BME280;35163;48.878;18.040;2023-04-01T07:26:53;96953.00;;;12.80;58.22
49297;BME280;35163;48.878;18.040;2023-04-01T07:29:23;96951.03;;;12.84;58.34
49297;BME280;35163;48.878;18.040;2023-04-01T07:43:22;96961.88;;;12.76;59.18
49297;BME280;35163;48.878;18.040;2023-04-01T07:46:26;96962.94;;;12.73;59.39
49297;BME280;35163;48.878;18.040;2023-04-01T07:49:07;96972.84;;;12.67;60.29
49297;BME280;35163;48.878;18.040;2023-04-01T07:52:27;96974.72;;;12.64;60.39
49297;BME280;35163;48.878;18.040;2023-04-01T07:55:06;96974.50;;;12.68;61.15
49297;BME280;35163;48.878;18.040;2023-04-01T07:57:43;96970.16;;;12.68;62.67
49297;BME280;35163;48.878;18.040;2023-04-01T08:00:23;96977.09;;;12.68;63.21
49297;BME280;35163;48.878;18.040;2023-04-01T08:05:29;96964.19;;;12.53;64.05
49297;BME280;35163;48.878;18.040;2023-04-01T08:16:11;96973.81;;;12.51;64.26
49297;BME280;35163;48.878;18.040;2023-04-01T08:23:51;96978.06;;;12.52;64.09
49297;BME280;35163;48.878;18.040;2023-04-01T08:26:37;96981.06;;;12.46;63.83
49297;BME280;35163;48.878;18.040;2023-04-01T08:29:16;96980.56;;;12.54;62.83
49297;BME280;35163;48.878;18.040;2023-04-01T08:31:55;96981.31;;;12.56;62.33
49297;BME280;35163;48.878;18.040;2023-04-01T08:34:30;96973.63;;;12.54;62.24
49297;BME280;35163;48.878;18.040;2023-04-01T08:37:15;96981.31;;;12.56;61.94
49297;BME280;35163;48.878;18.040;2023-04-01T08:42:45;96982.88;;;12.58;61.24
49297;BME280;35163;48.878;18.040;2023-04-01T08:56:41;96992.19;;;12.75;61.26
49297;BME280;35163;48.878;18.040;2023-04-01T09:02:19;96988.44;;;12.94;60.84
49297;BME280;35163;48.878;18.040;2023-04-01T09:16:11;96997.72;;;13.11;63.89
49297;BME280;35163;48.878;18.040;2023-04-01T09:18:58;96998.25;;;13.17;63.99
49297;BME280;35163;48.878;18.040;2023-04-01T09:24:44;96997.09;;;13.21;64.04
49297;BME280;35163;48.878;18.040;2023-04-01T09:27:34;96997.75;;;13.24;64.70
49297;BME280;35163;48.878;18.040;2023-04-01T09:30:17;97006.91;;;13.30;64.94
49297;BME280;35163;48.878;18.040;2023-04-01T09:33:45;96998.47;;;13.27;64.58
49297;BME280;35163;48.878;18.040;2023-04-01T09:38:56;97002.25;;;13.35;63.77
49297;BME280;35163;48.878;18.040;2023-04-01T09:49:43;97019.47;;;13.49;62.01
49297;BME280;35163;48.878;18.040;2023-04-01T09:58:04;97014.34;;;13.63;64.11
49297;BME280;35163;48.878;18.040;2023-04-01T10:46:37;96996.09;;;14.41;60.02
49297;BME280;35163;48.878;18.040;2023-04-01T11:22:10;96998.59;;;14.55;53.81
49297;BME280;35163;48.878;18.040;2023-04-01T11:25:17;96995.13;;;14.68;53.90
49297;BME280;35163;48.878;18.040;2023-04-01T11:33:19;96997.69;;;14.81;51.98
49297;BME280;35163;48.878;18.040;2023-04-01T11:44:17;96996.94;;;14.79;54.48
49297;BME280;35163;48.878;18.040;2023-04-01T12:01:16;97000.72;;;14.75;52.90
49297;BME280;35163;48.878;18.040;2023-04-01T12:06:48;97000.38;;;14.79;51.75
49297;BME280;35163;48.878;18.040;2023-04-01T12:09:45;97000.91;;;14.85;51.74
49297;BME280;35163;48.878;18.040;2023-04-01T12:12:36;97000.56;;;14.89;50.94
49297;BME280;35163;48.878;18.040;2023-04-01T12:21:04;97011.22;;;15.11;50.31
49297;BME280;35163;48.878;18.040;2023-04-01T12:24:25;97006.41;;;15.17;50.60
49297;BME280;35163;48.878;18.040;2023-04-01T12:27:08;97003.34;;;15.24;50.82
49297;BME280;35163;48.878;18.040;2023-04-01T12:30:00;97000.13;;;15.20;50.67
49297;BME280;35163;48.878;18.040;2023-04-01T12:39:17;97004.78;;;15.28;50.48
49297;BME280;35163;48.878;18.040;2023-04-01T13:00:58;97010.25;;;15.12;50.85
49297;BME280;35163;48.878;18.040;2023-04-01T13:06:44;97012.88;;;15.12;51.24
49297;BME280;35163;48.878;18.040;2023-04-01T13:09:40;97016.47;;;15.22;52.06
49297;BME280;35163;48.878;18.040;2023-04-01T13:15:43;97024.53;;;15.30;52.15
49297;BME280;35163;48.878;18.040;2023-04-01T13:21:19;97014.03;;;15.07;52.65
49297;BME280;35163;48.878;18.040;2023-04-01T13:42:50;97029.03;;;14.66;50.93
49297;BME280;35163;48.878;18.040;2023-04-01T13:45:23;97029.34;;;14.62;52.08
49297;BME280;35163;48.878;18.040;2023-04-01T14:03:12;97025.09;;;14.61;53.19
49297;BME280;35163;48.878;18.040;2023-04-01T14:06:02;97028.59;;;14.73;54.06
49297;BME280;35163;48.878;18.040;2023-04-01T14:36:49;97020.53;;;14.51;52.29
49297;BME280;35163;48.878;18.040;2023-04-01T14:50:21;97023.75;;;14.68;52.06
49297;BME280;35163;48.878;18.040;2023-04-01T14:58:11;97030.81;;;14.66;52.35
49297;BME280;35163;48.878;18.040;2023-04-01T15:03:26;97028.34;;;14.51;51.61
49297;BME280;35163;48.878;18.040;2023-04-01T15:06:35;97024.81;;;14.52;50.57
49297;BME280;35163;48.878;18.040;2023-04-01T15:23:37;97042.75;;;14.18;59.22
49297;BME280;35163;48.878;18.040;2023-04-01T15:37:55;97035.97;;;13.76;62.26
49297;BME280;35163;48.878;18.040;2023-04-01T15:43:47;97036.91;;;13.75;61.03
49297;BME280;35163;48.878;18.040;2023-04-01T15:46:26;97042.28;;;13.72;60.32
49297;BME280;35163;48.878;18.040;2023-04-01T15:54:27;97055.72;;;13.79;59.55
49297;BME280;35163;48.878;18.040;2023-04-01T15:57:11;97057.91;;;13.85;60.13
49297;BME280;35163;48.878;18.040;2023-04-01T15:59:57;97066.44;;;13.87;59.92
49297;BME280;35163;48.878;18.040;2023-04-01T16:15:47;97057.81;;;13.87;59.46
49297;BME280;35163;48.878;18.040;2023-04-01T16:18:37;97052.63;;;13.87;59.63
49297;BME280;35163;48.878;18.040;2023-04-01T16:23:50;97041.47;;;13.84;59.35
49297;BME280;35163;48.878;18.040;2023-04-01T16:26:35;97047.53;;;13.85;59.44
49297;BME280;35163;48.878;18.040;2023-04-01T16:31:53;97045.25;;;13.80;58.73
49297;BME280;35163;48.878;18.040;2023-04-01T16:34:44;97053.56;;;13.85;59.16
49297;BME280;35163;48.878;18.040;2023-04-01T16:37:23;97055.31;;;13.85;59.35
49297;BME280;35163;48.878;18.040;2023-04-01T16:42:50;97062.28;;;13.84;58.39
49297;BME280;35163;48.878;18.040;2023-04-01T16:47:56;97077.13;;;13.82;58.24
49297;BME280;35163;48.878;18.040;2023-04-01T16:50:28;97072.66;;;13.84;57.88
49297;BME280;35163;48.878;18.040;2023-04-01T16:55:50;97090.41;;;13.78;58.97
49297;BME280;35163;48.878;18.040;2023-04-01T16:58:24;97091.38;;;13.77;59.06
49297;BME280;35163;48.878;18.040;2023-04-01T17:01:21;97092.38;;;13.74;59.11
49297;BME280;35163;48.878;18.040;2023-04-01T17:03:54;97100.28;;;13.72;58.84
49297;BME280;35163;48.878;18.040;2023-04-01T17:06:49;97098.72;;;13.70;58.97
49297;BME280;35163;48.878;18.040;2023-04-01T17:12:33;97108.06;;;13.59;59.11
49297;BME280;35163;48.878;18.040;2023-04-01T17:19:12;97106.84;;;13.51;60.11
49297;BME280;35163;48.878;18.040;2023-04-01T17:42:53;97132.72;;;13.24;61.77
49297;BME280;35163;48.878;18.040;2023-04-01T17:45:36;97139.94;;;13.19;62.13
49297;BME280;35163;48.878;18.040;2023-04-01T17:51:24;97142.28;;;13.09;62.07
49297;BME280;35163;48.878;18.040;2023-04-01T18:02:54;97151.88;;;12.94;60.61
49297;BME280;35163;48.878;18.040;2023-04-01T18:20:02;97170.13;;;12.78;60.27
49297;BME280;35163;48.878;18.040;2023-04-01T18:27:47;97181.63;;;12.74;60.83
49297;BME280;35163;48.878;18.040;2023-04-01T18:30:22;97184.47;;;12.69;61.06
49297;BME280;35163;48.878;18.040;2023-04-01T18:33:01;97185.59;;;12.65;61.23
49297;BME280;35163;48.878;18.040;2023-04-01T18:35:53;97184.28;;;12.58;62.08
49297;BME280;35163;48.878;18.040;2023-04-01T18:38:38;97191.97;;;12.45;62.60
49297;BME280;35163;48.878;18.040;2023-04-01T18:41:32;97193.91;;;12.41;62.84
49297;BME280;35163;48.878;18.040;2023-04-01T18:44:26;97194.72;;;12.42;62.97
49297;BME280;35163;48.878;18.040;2023-04-01T18:52:53;97203.94;;;12.31;63.81
49297;BME280;35163;48.878;18.040;2023-04-01T18:55:30;97196.16;;;12.31;63.25
49297;BME280;35163;48.878;18.040;2023-04-01T18:58:42;97202.56;;;12.25;63.67
49297;BME280;35163;48.878;18.040;2023-04-01T19:01:22;97203.75;;;12.20;64.25
49297;BME280;35163;48.878;18.040;2023-04-01T19:06:54;97200.56;;;12.14;64.30
49297;BME280;35163;48.878;18.040;2023-04-01T19:09:43;97202.50;;;12.11;64.77
49297;BME280;35163;48.878;18.040;2023-04-01T19:12:38;97205.44;;;12.05;65.05
49297;BME280;35163;48.878;18.040;2023-04-01T19:15:19;97204.78;;;12.01;64.90
49297;BME280;35163;48.878;18.040;2023-04-01T19:20:44;97214.81;;;11.91;65.86
49297;BME280;35163;48.878;18.040;2023-04-01T19:26:05;97221.16;;;11.85;65.60
49297;BME280;35163;48.878;18.040;2023-04-01T19:31:19;97219.03;;;11.77;65.98
49297;BME280;35163;48.878;18.040;2023-04-01T19:34:19;97224.38;;;11.74;66.09
49297;BME280;35163;48.878;18.040;2023-04-01T19:36:53;97234.97;;;11.70;66.79
49297;BME280;35163;48.878;18.040;2023-04-01T19:50:46;97245.44;;;11.52;67.59
49297;BME280;35163;48.878;18.040;2023-04-01T19:56:16;97256.53;;;11.38;67.92
49297;BME280;35163;48.878;18.040;2023-04-01T20:01:28;97239.06;;;11.25;68.38
49297;BME280;35163;48.878;18.040;2023-04-01T20:04:34;97247.22;;;11.17;69.11
49297;BME280;35163;48.878;18.040;2023-04-01T20:07:46;97246.72;;;11.11;69.21
49297;BME280;35163;48.878;18.040;2023-04-01T20:10:15;97251.56;;;11.17;68.67
49297;BME280;35163;48.878;18.040;2023-04-01T20:15:45;97255.38;;;11.10;69.04
49297;BME280;35163;48.878;18.040;2023-04-01T20:18:17;97255.47;;;11.08;69.10
49297;BME280;35163;48.878;18.040;2023-04-01T20:22:04;97263.97;;;11.10;68.16
49297;BME280;35163;48.878;18.040;2023-04-01T20:26:51;97272.81;;;11.06;68.43
49297;BME280;35163;48.878;18.040;2023-04-01T20:40:32;97264.16;;;11.07;67.96
49297;BME280;35163;48.878;18.040;2023-04-01T20:49:00;97269.16;;;11.10;66.87
49297;BME280;35163;48.878;18.040;2023-04-01T20:51:45;97275.41;;;11.06;67.05
49297;BME280;35163;48.878;18.040;2023-04-01T20:54:33;97273.50;;;11.10;66.87
49297;BME280;35163;48.878;18.040;2023-04-01T21:08:06;97293.38;;;10.91;66.85
49297;BME280;35163;48.878;18.040;2023-04-01T21:11:46;97292.94;;;10.83;67.78
49297;BME280;35163;48.878;18.040;2023-04-01T21:14:31;97293.03;;;10.81;67.90
49297;BME280;35163;48.878;18.040;2023-04-01T21:25:35;97296.91;;;10.55;68.89
49297;BME280;35163;48.878;18.040;2023-04-01T21:28:58;97288.81;;;10.43;69.23
49297;BME280;35163;48.878;18.040;2023-04-01T21:37:22;97292.91;;;10.30;70.06
49297;BME280;35163;48.878;18.040;2023-04-01T21:45:33;97296.06;;;10.17;70.39
49297;BME280;35163;48.878;18.040;2023-04-01T21:50:53;97299.94;;;10.08;70.38
49297;BME280;35163;48.878;18.040;2023-04-01T22:02:41;97299.94;;;9.89;71.59
49297;BME280;35163;48.878;18.040;2023-04-01T22:05:22;97300.00;;;9.70;72.04
49297;BME280;35163;48.878;18.040;2023-04-01T22:13:31;97309.16;;;9.56;72.74
49297;BME280;35163;48.878;18.040;2023-04-01T22:18:47;97309.13;;;9.58;72.53
49297;BME280;35163;48.878;18.040;2023-04-01T22:24:25;97310.31;;;9.51;72.87
49297;BME280;35163;48.878;18.040;2023-04-01T22:30:15;97311.19;;;9.50;73.34
49297;BME280;35163;48.878;18.040;2023-04-01T22:32:46;97312.25;;;9.45;72.95
49297;BME280;35163;48.878;18.040;2023-04-01T22:43:39;97312.00;;;9.31;74.46
49297;BME280;35163;48.878;18.040;2023-04-01T22:49:14;97318.88;;;9.32;73.67
49297;BME280;35163;48.878;18.040;2023-04-01T22:51:47;97320.59;;;9.31;74.14
49297;BME280;35163;48.878;18.040;2023-04-01T22:56:55;97321.50;;;9.30;73.95
49297;BME280;35163;48.878;18.040;2023-04-01T22:59:37;97324.91;;;9.31;74.35
49297;BME280;35163;48.878;18.040;2023-04-01T23:02:21;97326.81;;;9.27;74.65
49297;BME280;35163;48.878;18.040;2023-04-01T23:05:01;97337.06;;;9.29;74.88
49297;BME280;35163;48.878;18.040;2023-04-01T23:13:05;97337.81;;;9.31;74.56
49297;BME280;35163;48.878;18.040;2023-04-01T23:15:37;97342.22;;;9.29;75.21
49297;BME280;35163;48.878;18.040;2023-04-01T23:18:25;97341.94;;;9.35;74.53
49297;BME280;35163;48.878;18.040;2023-04-01T23:21:09;97344.53;;;9.35;74.32
49297;BME280;35163;48.878;18.040;2023-04-01T23:27:02;97337.81;;;9.31;74.82
49297;BME280;35163;48.878;18.040;2023-04-01T23:29:16;97340.53;;;9.28;75.16
49297;BME280;35163;48.878;18.040;2023-04-01T23:32:05;97337.88;;;9.29;75.00
49297;BME280;35163;48.878;18.040;2023-04-01T23:34:46;97344.81;;;9.29;74.56
49297;BME280;35163;48.878;18.040;2023-04-01T23:37:15;97345.75;;;9.26;74.93
49297;BME280;35163;48.878;18.040;2023-04-01T23:39:46;97351.84;;;9.25;74.35
49297;BME280;35163;48.878;18.040;2023-04-01T23:42:33;97357.94;;;9.22;74.51
49297;BME280;35163;48.878;18.040;2023-04-01T23:45:13;97352.16;;;9.17;75.03
49297;BME280;35163;48.878;18.040;2023-04-01T23:47:45;97362.41;;;9.19;75.31
49297;BME280;35163;48.878;18.040;2023-04-01T23:50:18;97357.44;;;9.14;75.13
49297;BME280;35163;48.878;18.040;2023-04-01T23:52:48;97353.34;;;9.10;75.42
49297;BME280;35163;48.878;18.040;2023-04-01T23:55:23;97358.50;;;9.10;75.00
49297;BME280;35163;48.878;18.040;2023-04-01T23:58:17;97359.38;;;9.09;75.43
